sensor_id;sensor_type;location;lat;lon;timestamp;pressure;altitude;pressure_sealevel;temperature;humidity
3697;BME280;60662;48.810;8.872;2023-03-20T08:25:20;96939.75;;;9.24;82.30
3697;BME280;60662;48.810;8.872;2023-03-20T08:26:23;96945.38;;;9.37;82.60
3697;BME280;60662;48.810;8.872;2023-03-20T08:27:25;96945.38;;;9.37;81.15
3697;BME280;60662;48.810;8.872;2023-03-20T08:28:26;96948.16;;;9.57;79.99
3697;BME280;60662;48.810;8.872;2023-03-20T08:29:46;96936.81;;;9.58;79.91
3697;BME280;60662;48.810;8.872;2023-03-20T08:30:48;96931.75;;;9.79;80.16
3697;BME280;60662;48.810;8.872;2023-03-20T08:31:49;96941.91;;;10.09;78.60
3697;BME280;60662;48.810;8.872;2023-03-20T08:32:51;96936.56;;;10.36;77.74
3697;BME280;60662;48.810;8.872;2023-03-20T08:33:54;96939.19;;;10.58;77.72
3697;BME280;60662;48.810;8.872;2023-03-20T08:34:55;96931.41;;;10.78;76.17
3697;BME280;60662;48.810;8.872;2023-03-20T08:35:57;96934.50;;;11.09;75.01
3697;BME280;60662;48.810;8.872;2023-03-20T08:37:02;96938.47;;;11.78;73.06
3697;BME280;60662;48.810;8.872;2023-03-20T08:38:03;96937.56;;;12.55;69.86
3697;BME280;60662;48.810;8.872;2023-03-20T08:39:05;96936.03;;;12.88;68.03
3697;BME280;60662;48.810;8.872;2023-03-20T08:40:10;96945.59;;;12.89;68.25
3697;BME280;60662;48.810;8.872;2023-03-20T08:41:12;96941.88;;;13.97;66.44
3697;BME280;60662;48.810;8.872;2023-03-20T08:42:13;96927.31;;;14.71;63.54
3697;BME280;60662;48.810;8.872;2023-03-20T08:43:15;96935.19;;;14.87;63.02
3697;BME280;60662;48.810;8.872;2023-03-20T08:44:17;96933.56;;;13.88;63.80
3697;BME280;60662;48.810;8.872;2023-03-20T08:45:18;96940.72;;;13.69;64.17
3697;BME280;60662;48.810;8.872;2023-03-20T08:46:19;96940.00;;;13.99;64.64
3697;BME280;60662;48.810;8.872;2023-03-20T08:47:21;96938.53;;;13.77;64.75
3697;BME280;60662;48.810;8.872;2023-03-20T08:48:22;96935.03;;;13.43;65.37
3697;BME280;60662;48.810;8.872;2023-03-20T08:49:24;96937.41;;;13.30;65.29
3697;BME280;60662;48.810;8.872;2023-03-20T08:50:25;96941.94;;;13.27;64.76
3697;BME280;60662;48.810;8.872;2023-03-20T08:51:27;96946.41;;;12.89;66.65
3697;BME280;60662;48.810;8.872;2023-03-20T08:52:28;96938.44;;;12.56;67.44
3697;BME280;60662;48.810;8.872;2023-03-20T08:53:30;96945.53;;;12.16;69.32
3697;BME280;60662;48.810;8.872;2023-03-20T08:54:31;96944.13;;;12.08;69.99
3697;BME280;60662;48.810;8.872;2023-03-20T08:55:34;96937.94;;;11.90;70.60
3697;BME280;60662;48.810;8.872;2023-03-20T08:56:35;96939.13;;;11.83;70.11
3697;BME280;60662;48.810;8.872;2023-03-20T08:57:37;96952.34;;;11.80;70.57
3697;BME280;60662;48.810;8.872;2023-03-20T08:58:39;96953.94;;;11.64;71.81
3697;BME280;60662;48.810;8.872;2023-03-20T08:59:40;96952.53;;;11.15;70.97
3697;BME280;60662;48.810;8.872;2023-03-20T09:00:42;96949.69;;;10.99;71.65
3697;BME280;60662;48.810;8.872;2023-03-20T09:01:44;96950.28;;;10.85;71.28
3697;BME280;60662;48.810;8.872;2023-03-20T09:02:50;96948.53;;;11.06;70.71
3697;BME280;60662;48.810;8.872;2023-03-20T09:03:52;96948.47;;;11.08;70.24
3697;BME280;60662;48.810;8.872;2023-03-20T09:04:53;96952.97;;;11.04;71.44
3697;BME280;60662;48.810;8.872;2023-03-20T09:05:55;96951.53;;;11.38;70.67
3697;BME280;60662;48.810;8.872;2023-03-20T09:06:56;96960.91;;;11.44;70.33
3697;BME280;60662;48.810;8.872;2023-03-20T09:07:59;96948.81;;;11.41;69.25
3697;BME280;60662;48.810;8.872;2023-03-20T09:09:00;96954.81;;;11.23;69.99
3697;BME280;60662;48.810;8.872;2023-03-20T09:10:03;96951.22;;;11.25;70.52
3697;BME280;60662;48.810;8.872;2023-03-20T09:11:05;96960.75;;;11.47;70.26
3697;BME280;60662;48.810;8.872;2023-03-20T09:12:07;96964.25;;;11.87;69.63
3697;BME280;60662;48.810;8.872;2023-03-20T09:13:08;96959.91;;;11.67;68.45
3697;BME280;60662;48.810;8.872;2023-03-20T09:14:27;96960.19;;;11.80;68.21
3697;BME280;60662;48.810;8.872;2023-03-20T09:15:29;96956.66;;;12.02;69.76
3697;BME280;60662;48.810;8.872;2023-03-20T09:16:31;96957.84;;;12.33;68.58
3697;BME280;60662;48.810;8.872;2023-03-20T09:17:32;96959.16;;;12.24;67.34
3697;BME280;60662;48.810;8.872;2023-03-20T09:18:34;96951.56;;;12.37;66.92
3697;BME280;60662;48.810;8.872;2023-03-20T09:19:36;96949.94;;;12.34;66.88
3697;BME280;60662;48.810;8.872;2023-03-20T09:20:40;96959.06;;;12.45;66.23
3697;BME280;60662;48.810;8.872;2023-03-20T09:21:41;96951.53;;;12.56;66.65
3697;BME280;60662;48.810;8.872;2023-03-20T09:22:43;96954.28;;;12.89;65.37
3697;BME280;60662;48.810;8.872;2023-03-20T09:23:45;96958.06;;;13.01;65.86
3697;BME280;60662;48.810;8.872;2023-03-20T09:24:47;96960.94;;;12.97;66.07
3697;BME280;60662;48.810;8.872;2023-03-20T09:25:49;96961.44;;;13.40;65.06
3697;BME280;60662;48.810;8.872;2023-03-20T09:26:50;96959.41;;;13.63;65.27
3697;BME280;60662;48.810;8.872;2023-03-20T09:27:53;96959.66;;;13.92;63.98
3697;BME280;60662;48.810;8.872;2023-03-20T09:28:57;96954.25;;;13.77;63.60
3697;BME280;60662;48.810;8.872;2023-03-20T09:29:58;96957.94;;;13.91;65.36
3697;BME280;60662;48.810;8.872;2023-03-20T09:31:00;96959.00;;;14.20;65.07
3697;BME280;60662;48.810;8.872;2023-03-20T09:32:02;96960.41;;;13.60;64.87
3697;BME280;60662;48.810;8.872;2023-03-20T09:33:04;96962.16;;;13.60;64.57
3697;BME280;60662;48.810;8.872;2023-03-20T09:34:05;96956.63;;;13.31;65.70
3697;BME280;60662;48.810;8.872;2023-03-20T09:35:07;96959.72;;;13.39;66.53
3697;BME280;60662;48.810;8.872;2023-03-20T09:36:09;96958.63;;;13.26;66.03
3697;BME280;60662;48.810;8.872;2023-03-20T09:37:12;96965.03;;;12.66;65.63
3697;BME280;60662;48.810;8.872;2023-03-20T09:38:13;96962.41;;;12.29;66.95
3697;BME280;60662;48.810;8.872;2023-03-20T09:39:15;96958.13;;;12.46;67.41
3697;BME280;60662;48.810;8.872;2023-03-20T09:40:29;96963.78;;;12.55;67.48
3697;BME280;60662;48.810;8.872;2023-03-20T09:41:32;96960.22;;;12.56;66.46
3697;BME280;60662;48.810;8.872;2023-03-20T09:44:38;96966.03;;;12.63;64.77
3697;BME280;60662;48.810;8.872;2023-03-20T09:47:29;96962.16;;;13.07;65.66
3697;BME280;60662;48.810;8.872;2023-03-20T09:48:48;96968.06;;;12.76;64.92
3697;BME280;60662;48.810;8.872;2023-03-20T09:51:40;96975.44;;;13.21;64.26
3697;BME280;60662;48.810;8.872;2023-03-20T09:52:51;96967.47;;;13.42;64.53
3697;BME280;60662;48.810;8.872;2023-03-20T09:53:58;96975.38;;;13.23;62.49
3697;BME280;60662;48.810;8.872;2023-03-20T09:55:07;96972.66;;;13.25;62.35
3697;BME280;60662;48.810;8.872;2023-03-20T09:56:16;96972.75;;;13.23;63.35
3697;BME280;60662;48.810;8.872;2023-03-20T09:57:42;96972.19;;;13.34;64.31
3697;BME280;60662;48.810;8.872;2023-03-20T09:58:56;96974.25;;;12.92;63.94
3697;BME280;60662;48.810;8.872;2023-03-20T10:00:05;96966.97;;;12.80;63.93
3697;BME280;60662;48.810;8.872;2023-03-20T10:01:12;96971.53;;;12.39;63.75
3697;BME280;60662;48.810;8.872;2023-03-20T10:02:24;96925.72;;;11.91;65.20
3697;BME280;60662;48.810;8.872;2023-03-20T10:03:38;96960.63;;;12.11;67.11
3697;BME280;60662;48.810;8.872;2023-03-20T10:04:42;96972.22;;;12.43;67.10
3697;BME280;60662;48.810;8.872;2023-03-20T10:05:53;96971.81;;;12.33;67.44
3697;BME280;60662;48.810;8.872;2023-03-20T10:06:56;96971.28;;;12.44;66.62
3697;BME280;60662;48.810;8.872;2023-03-20T10:08:01;96974.84;;;12.43;67.61
3697;BME280;60662;48.810;8.872;2023-03-20T10:09:16;96973.88;;;12.63;67.63
3697;BME280;60662;48.810;8.872;2023-03-20T10:10:18;96981.59;;;12.66;67.33
3697;BME280;60662;48.810;8.872;2023-03-20T10:12:58;96967.19;;;12.57;66.45
3697;BME280;60662;48.810;8.872;2023-03-20T10:14:20;96972.97;;;12.64;67.18
3697;BME280;60662;48.810;8.872;2023-03-20T10:16:09;96978.78;;;12.71;67.93
3697;BME280;60662;48.810;8.872;2023-03-20T10:18:32;96976.47;;;12.46;69.13
3697;BME280;60662;48.810;8.872;2023-03-20T10:21:31;96979.72;;;11.92;69.97
3697;BME280;60662;48.810;8.872;2023-03-20T10:22:16;96979.69;;;11.93;70.27
3697;BME280;60662;48.810;8.872;2023-03-20T10:23:28;96982.75;;;11.83;69.76
3697;BME280;60662;48.810;8.872;2023-03-20T10:24:33;96976.44;;;11.68;70.42
3697;BME280;60662;48.810;8.872;2023-03-20T10:25:42;96986.72;;;11.52;70.28
3697;BME280;60662;48.810;8.872;2023-03-20T10:26:50;96983.97;;;11.34;71.46
3697;BME280;60662;48.810;8.872;2023-03-20T10:28:03;96986.06;;;11.26;72.21
3697;BME280;60662;48.810;8.872;2023-03-20T10:29:22;96988.47;;;11.31;72.20
3697;BME280;60662;48.810;8.872;2023-03-20T10:30:35;96983.44;;;11.26;72.19
3697;BME280;60662;48.810;8.872;2023-03-20T10:36:02;96974.13;;;12.01;69.49
3697;BME280;60662;48.810;8.872;2023-03-20T10:41:15;96971.75;;;13.26;65.66
3697;BME280;60662;48.810;8.872;2023-03-20T10:42:26;96973.59;;;13.23;66.28
3697;BME280;60662;48.810;8.872;2023-03-20T10:43:30;96971.91;;;13.40;65.26
3697;BME280;60662;48.810;8.872;2023-03-20T10:44:49;96966.44;;;13.45;64.30
3697;BME280;60662;48.810;8.872;2023-03-20T10:46:16;96972.69;;;13.93;64.13
3697;BME280;60662;48.810;8.872;2023-03-20T10:47:22;96963.84;;;14.44;62.32
3697;BME280;60662;48.810;8.872;2023-03-20T10:48:38;96964.22;;;15.61;59.55
3697;BME280;60662;48.810;8.872;2023-03-20T10:49:57;96966.69;;;15.03;60.42
3697;BME280;60662;48.810;8.872;2023-03-20T10:51:02;96961.47;;;14.87;61.03
3697;BME280;60662;48.810;8.872;2023-03-20T10:52:28;96967.34;;;14.76;61.38
3697;BME280;60662;48.810;8.872;2023-03-20T10:53:36;96961.41;;;14.73;61.17
3697;BME280;60662;48.810;8.872;2023-03-20T10:54:46;96962.53;;;15.60;60.56
3697;BME280;60662;48.810;8.872;2023-03-20T10:55:48;96963.09;;;15.79;58.06
3697;BME280;60662;48.810;8.872;2023-03-20T10:56:51;96963.38;;;16.74;55.96
3697;BME280;60662;48.810;8.872;2023-03-20T10:58:07;96962.25;;;17.46;54.76
3697;BME280;60662;48.810;8.872;2023-03-20T10:59:26;96964.63;;;18.02;52.60
3697;BME280;60662;48.810;8.872;2023-03-20T11:00:28;96950.34;;;18.79;50.69
3697;BME280;60662;48.810;8.872;2023-03-20T11:01:30;96955.16;;;18.37;51.08
3697;BME280;60662;48.810;8.872;2023-03-20T11:02:35;96951.41;;;18.76;50.58
3697;BME280;60662;48.810;8.872;2023-03-20T11:03:37;96955.25;;;19.56;48.96
3697;BME280;60662;48.810;8.872;2023-03-20T11:04:40;96955.56;;;19.40;48.43
3697;BME280;60662;48.810;8.872;2023-03-20T11:05:42;96959.72;;;19.67;48.59
3697;BME280;60662;48.810;8.872;2023-03-20T11:08:11;96946.84;;;17.78;51.85
3697;BME280;60662;48.810;8.872;2023-03-20T11:09:17;96958.97;;;17.42;51.55
3697;BME280;60662;48.810;8.872;2023-03-20T11:10:19;96952.13;;;17.53;52.66
3697;BME280;60662;48.810;8.872;2023-03-20T11:11:26;96952.84;;;18.32;51.15
3697;BME280;60662;48.810;8.872;2023-03-20T11:12:31;96959.34;;;18.76;49.02
3697;BME280;60662;48.810;8.872;2023-03-20T11:13:35;96966.72;;;19.21;48.96
3697;BME280;60662;48.810;8.872;2023-03-20T11:14:38;96955.69;;;20.09;46.74
3697;BME280;60662;48.810;8.872;2023-03-20T11:15:40;96957.16;;;19.43;47.01
3697;BME280;60662;48.810;8.872;2023-03-20T11:16:41;96948.09;;;19.34;47.05
3697;BME280;60662;48.810;8.872;2023-03-20T11:17:50;96962.13;;;18.75;47.25
3697;BME280;60662;48.810;8.872;2023-03-20T11:18:52;96957.13;;;18.83;48.50
3697;BME280;60662;48.810;8.872;2023-03-20T11:20:02;96954.34;;;17.59;49.13
3697;BME280;60662;48.810;8.872;2023-03-20T11:21:09;96956.38;;;16.88;50.95
3697;BME280;60662;48.810;8.872;2023-03-20T11:23:34;96957.63;;;16.40;52.25
3697;BME280;60662;48.810;8.872;2023-03-20T11:24:40;96964.19;;;16.89;51.45
3697;BME280;60662;48.810;8.872;2023-03-20T11:25:49;96955.19;;;17.06;51.19
3697;BME280;60662;48.810;8.872;2023-03-20T11:26:52;96951.25;;;17.39;51.70
3697;BME280;60662;48.810;8.872;2023-03-20T11:27:56;96952.72;;;16.76;52.70
3697;BME280;60662;48.810;8.872;2023-03-20T11:28:59;96950.25;;;16.60;53.03
3697;BME280;60662;48.810;8.872;2023-03-20T11:30:02;96958.78;;;17.71;51.16
3697;BME280;60662;48.810;8.872;2023-03-20T11:32:32;96945.16;;;17.65;50.84
3697;BME280;60662;48.810;8.872;2023-03-20T11:33:40;96952.75;;;18.95;49.41
3697;BME280;60662;48.810;8.872;2023-03-20T11:34:43;96948.25;;;18.84;49.62
3697;BME280;60662;48.810;8.872;2023-03-20T11:35:45;96949.38;;;18.56;49.95
3697;BME280;60662;48.810;8.872;2023-03-20T11:36:57;96953.59;;;18.21;51.06
3697;BME280;60662;48.810;8.872;2023-03-20T11:38:19;96956.56;;;17.91;49.76
3697;BME280;60662;48.810;8.872;2023-03-20T11:39:24;96942.72;;;17.36;50.59
3697;BME280;60662;48.810;8.872;2023-03-20T11:40:31;96945.03;;;16.31;52.08
3697;BME280;60662;48.810;8.872;2023-03-20T11:41:32;96946.09;;;15.99;53.53
3697;BME280;60662;48.810;8.872;2023-03-20T11:42:34;96948.09;;;16.10;53.22
3697;BME280;60662;48.810;8.872;2023-03-20T11:43:40;96948.59;;;16.44;50.98
3697;BME280;60662;48.810;8.872;2023-03-20T11:44:41;96953.16;;;16.28;52.12
3697;BME280;60662;48.810;8.872;2023-03-20T11:45:45;96948.44;;;16.33;53.08
3697;BME280;60662;48.810;8.872;2023-03-20T11:48:05;96951.22;;;17.26;53.18
3697;BME280;60662;48.810;8.872;2023-03-20T11:49:19;96949.38;;;17.93;51.84
3697;BME280;60662;48.810;8.872;2023-03-20T11:50:25;96944.97;;;17.68;51.98
3697;BME280;60662;48.810;8.872;2023-03-20T11:51:30;96948.41;;;16.47;52.74
3697;BME280;60662;48.810;8.872;2023-03-20T11:52:34;96945.84;;;16.04;54.07
3697;BME280;60662;48.810;8.872;2023-03-20T11:54:51;96938.41;;;15.82;55.64
3697;BME280;60662;48.810;8.872;2023-03-20T11:56:09;96943.81;;;15.79;55.65
3697;BME280;60662;48.810;8.872;2023-03-20T11:57:34;96945.00;;;16.45;55.57
3697;BME280;60662;48.810;8.872;2023-03-20T11:58:50;96938.38;;;16.25;54.71
3697;BME280;60662;48.810;8.872;2023-03-20T11:59:54;96934.56;;;16.44;54.59
3697;BME280;60662;48.810;8.872;2023-03-20T12:00:56;96938.25;;;16.41;54.45
3697;BME280;60662;48.810;8.872;2023-03-20T12:01:58;96939.94;;;15.41;53.34
3697;BME280;60662;48.810;8.872;2023-03-20T12:03:01;96937.03;;;15.01;54.83
3697;BME280;60662;48.810;8.872;2023-03-20T12:04:06;96935.88;;;14.75;56.42
3697;BME280;60662;48.810;8.872;2023-03-20T12:05:26;96930.34;;;14.47;56.27
3697;BME280;60662;48.810;8.872;2023-03-20T12:08:16;96940.72;;;14.18;57.89
3697;BME280;60662;48.810;8.872;2023-03-20T12:10:38;96935.47;;;13.85;58.64
3697;BME280;60662;48.810;8.872;2023-03-20T12:11:49;96937.16;;;13.70;59.77
3697;BME280;60662;48.810;8.872;2023-03-20T12:12:59;96939.66;;;13.20;60.07
3697;BME280;60662;48.810;8.872;2023-03-20T12:14:05;96943.69;;;13.45;60.59
3697;BME280;60662;48.810;8.872;2023-03-20T12:16:17;96945.13;;;13.51;60.44
3697;BME280;60662;48.810;8.872;2023-03-20T12:18:46;96931.28;;;13.65;59.88
3697;BME280;60662;48.810;8.872;2023-03-20T12:19:52;96928.44;;;13.69;59.39
3697;BME280;60662;48.810;8.872;2023-03-20T12:22:21;96932.31;;;14.28;59.24
3697;BME280;60662;48.810;8.872;2023-03-20T12:24:44;96927.16;;;13.43;59.40
3697;BME280;60662;48.810;8.872;2023-03-20T12:26:02;96930.69;;;13.60;60.56
3697;BME280;60662;48.810;8.872;2023-03-20T12:27:21;96930.97;;;13.71;60.05
3697;BME280;60662;48.810;8.872;2023-03-20T12:28:35;96929.94;;;13.74;59.67
3697;BME280;60662;48.810;8.872;2023-03-20T12:29:42;96926.53;;;13.38;59.83
3697;BME280;60662;48.810;8.872;2023-03-20T12:32:16;96929.00;;;13.23;60.65
3697;BME280;60662;48.810;8.872;2023-03-20T12:33:43;96923.91;;;13.55;61.12
3697;BME280;60662;48.810;8.872;2023-03-20T12:34:54;96918.88;;;13.51;60.73
3697;BME280;60662;48.810;8.872;2023-03-20T12:35:57;96930.78;;;13.05;60.60
3697;BME280;60662;48.810;8.872;2023-03-20T12:36:58;96925.25;;;12.94;61.71
3697;BME280;60662;48.810;8.872;2023-03-20T12:38:00;96925.63;;;12.86;61.68
3697;BME280;60662;48.810;8.872;2023-03-20T12:39:05;96924.53;;;13.08;61.17
3697;BME280;60662;48.810;8.872;2023-03-20T12:40:16;96918.59;;;13.04;61.82
3697;BME280;60662;48.810;8.872;2023-03-20T12:41:29;96914.66;;;12.96;60.98
3697;BME280;60662;48.810;8.872;2023-03-20T12:44:12;96915.75;;;13.09;60.41
3697;BME280;60662;48.810;8.872;2023-03-20T12:45:19;96917.69;;;13.23;60.58
3697;BME280;60662;48.810;8.872;2023-03-20T12:46:42;96911.41;;;13.61;59.31
3697;BME280;60662;48.810;8.872;2023-03-20T12:47:56;96913.09;;;13.27;59.35
3697;BME280;60662;48.810;8.872;2023-03-20T12:50:30;96915.75;;;13.44;59.65
3697;BME280;60662;48.810;8.872;2023-03-20T12:51:55;96911.97;;;13.50;59.33
3697;BME280;60662;48.810;8.872;2023-03-20T12:54:26;96918.13;;;13.31;60.29
3697;BME280;60662;48.810;8.872;2023-03-20T12:55:44;96917.59;;;13.07;60.09
3697;BME280;60662;48.810;8.872;2023-03-20T12:57:13;96914.13;;;12.71;60.30
3697;BME280;60662;48.810;8.872;2023-03-20T13:00:18;96909.72;;;12.54;61.41
3697;BME280;60662;48.810;8.872;2023-03-20T13:01:30;96899.56;;;12.29;62.06
3697;BME280;60662;48.810;8.872;2023-03-20T13:02:36;96908.41;;;12.27;61.61
3697;BME280;60662;48.810;8.872;2023-03-20T13:07:17;96902.31;;;12.07;62.20
3697;BME280;60662;48.810;8.872;2023-03-20T13:08:32;96907.72;;;12.60;61.01
3697;BME280;60662;48.810;8.872;2023-03-20T13:11:27;96896.59;;;14.88;55.84
3697;BME280;60662;48.810;8.872;2023-03-20T13:12:45;96901.00;;;14.87;53.47
3697;BME280;60662;48.810;8.872;2023-03-20T13:14:01;96894.59;;;14.77;53.68
3697;BME280;60662;48.810;8.872;2023-03-20T13:19:06;96899.91;;;15.06;52.45
3697;BME280;60662;48.810;8.872;2023-03-20T13:20:25;96884.31;;;15.33;52.22
3697;BME280;60662;48.810;8.872;2023-03-20T13:21:40;96886.28;;;14.99;51.60
3697;BME280;60662;48.810;8.872;2023-03-20T13:23:05;96881.31;;;14.48;52.54
3697;BME280;60662;48.810;8.872;2023-03-20T13:24:26;96885.00;;;15.06;52.41
3697;BME280;60662;48.810;8.872;2023-03-20T13:27:03;96887.22;;;14.67;51.45
3697;BME280;60662;48.810;8.872;2023-03-20T13:31:39;96877.22;;;14.74;51.52
3697;BME280;60662;48.810;8.872;2023-03-20T13:35:13;96882.22;;;14.47;51.75
3697;BME280;60662;48.810;8.872;2023-03-20T13:36:02;96878.09;;;15.34;51.90
3697;BME280;60662;48.810;8.872;2023-03-20T13:38:29;96862.88;;;15.97;49.69
3697;BME280;60662;48.810;8.872;2023-03-20T13:39:41;96853.06;;;16.13;49.79
3697;BME280;60662;48.810;8.872;2023-03-20T13:40:46;96861.72;;;16.43;48.84
3697;BME280;60662;48.810;8.872;2023-03-20T13:41:48;96856.78;;;16.24;48.82
3697;BME280;60662;48.810;8.872;2023-03-20T13:42:56;96862.66;;;16.14;49.01
3697;BME280;60662;48.810;8.872;2023-03-20T13:44:02;96860.78;;;16.16;49.51
3697;BME280;60662;48.810;8.872;2023-03-20T13:45:18;96861.09;;;15.97;49.46
3697;BME280;60662;48.810;8.872;2023-03-20T13:47:13;96867.56;;;15.63;50.59
3697;BME280;60662;48.810;8.872;2023-03-20T13:49:38;96851.50;;;14.79;52.40
3697;BME280;60662;48.810;8.872;2023-03-20T13:52:06;96860.69;;;14.56;52.27
3697;BME280;60662;48.810;8.872;2023-03-20T13:53:18;96855.81;;;14.34;53.43
3697;BME280;60662;48.810;8.872;2023-03-20T13:55:53;96852.44;;;14.16;53.14
3697;BME280;60662;48.810;8.872;2023-03-20T14:01:16;96855.56;;;14.23;53.34
3697;BME280;60662;48.810;8.872;2023-03-20T14:03:37;96850.91;;;14.12;53.34
3697;BME280;60662;48.810;8.872;2023-03-20T14:04:41;96851.59;;;13.99;52.99
3697;BME280;60662;48.810;8.872;2023-03-20T14:05:43;96853.63;;;14.10;53.32
3697;BME280;60662;48.810;8.872;2023-03-20T14:06:51;96856.69;;;14.18;53.09
3697;BME280;60662;48.810;8.872;2023-03-20T14:07:56;96848.63;;;14.06;52.52
3697;BME280;60662;48.810;8.872;2023-03-20T14:08:59;96851.66;;;13.98;53.47
3697;BME280;60662;48.810;8.872;2023-03-20T14:12:25;96848.38;;;14.10;52.55
3697;BME280;60662;48.810;8.872;2023-03-20T14:13:29;96852.69;;;14.27;52.79
3697;BME280;60662;48.810;8.872;2023-03-20T14:14:39;96844.44;;;14.33;52.65
3697;BME280;60662;48.810;8.872;2023-03-20T14:15:53;96857.91;;;14.43;52.53
3697;BME280;60662;48.810;8.872;2023-03-20T14:17:16;96839.22;;;13.85;52.65
3697;BME280;60662;48.810;8.872;2023-03-20T14:18:21;96835.00;;;13.83;53.37
3697;BME280;60662;48.810;8.872;2023-03-20T14:19:24;96844.47;;;13.69;53.68
3697;BME280;60662;48.810;8.872;2023-03-20T14:20:28;96845.94;;;13.24;53.97
3697;BME280;60662;48.810;8.872;2023-03-20T14:21:33;96849.28;;;13.10;54.71
3697;BME280;60662;48.810;8.872;2023-03-20T14:22:37;96842.56;;;13.22;54.87
3697;BME280;60662;48.810;8.872;2023-03-20T14:23:43;96839.16;;;13.37;54.61
3697;BME280;60662;48.810;8.872;2023-03-20T14:24:59;96839.59;;;13.46;54.89
3697;BME280;60662;48.810;8.872;2023-03-20T14:26:07;96841.50;;;13.76;54.64
3697;BME280;60662;48.810;8.872;2023-03-20T14:27:16;96836.50;;;13.55;53.72
3697;BME280;60662;48.810;8.872;2023-03-20T14:28:26;96847.00;;;13.71;54.81
3697;BME280;60662;48.810;8.872;2023-03-20T14:31:34;96850.94;;;13.29;56.61
3697;BME280;60662;48.810;8.872;2023-03-20T14:34:22;96851.06;;;13.10;57.42
3697;BME280;60662;48.810;8.872;2023-03-20T14:35:26;96843.84;;;13.31;57.64
3697;BME280;60662;48.810;8.872;2023-03-20T14:36:40;96844.41;;;13.37;57.90
3697;BME280;60662;48.810;8.872;2023-03-20T14:39:49;96836.16;;;13.10;56.42
3697;BME280;60662;48.810;8.872;2023-03-20T14:43:13;96843.28;;;12.55;57.75
3697;BME280;60662;48.810;8.872;2023-03-20T14:45:41;96850.16;;;12.76;57.86
3697;BME280;60662;48.810;8.872;2023-03-20T14:47:16;96848.84;;;12.84;58.18
3697;BME280;60662;48.810;8.872;2023-03-20T14:48:30;96850.63;;;12.66;57.62
3697;BME280;60662;48.810;8.872;2023-03-20T14:49:47;96831.97;;;12.55;58.10
3697;BME280;60662;48.810;8.872;2023-03-20T14:53:39;96844.13;;;12.56;57.61
3697;BME280;60662;48.810;8.872;2023-03-20T14:54:41;96842.66;;;12.68;58.13
3697;BME280;60662;48.810;8.872;2023-03-20T14:57:08;96835.50;;;12.71;59.17
3697;BME280;60662;48.810;8.872;2023-03-20T14:59:40;96825.81;;;12.73;58.56
3697;BME280;60662;48.810;8.872;2023-03-20T15:00:44;96844.81;;;12.77;58.46
3697;BME280;60662;48.810;8.872;2023-03-20T15:01:52;96839.28;;;12.83;59.47
3697;BME280;60662;48.810;8.872;2023-03-20T15:03:17;96849.13;;;12.78;58.60
3697;BME280;60662;48.810;8.872;2023-03-20T15:05:34;96840.13;;;12.66;58.61
3697;BME280;60662;48.810;8.872;2023-03-20T15:08:06;96843.28;;;12.55;58.48
3697;BME280;60662;48.810;8.872;2023-03-20T15:09:10;96844.66;;;12.45;58.82
3697;BME280;60662;48.810;8.872;2023-03-20T15:10:12;96841.41;;;12.40;59.04
3697;BME280;60662;48.810;8.872;2023-03-20T15:11:14;96841.88;;;12.31;59.31
3697;BME280;60662;48.810;8.872;2023-03-20T15:12:19;96844.06;;;12.21;59.36
3697;BME280;60662;48.810;8.872;2023-03-20T15:13:25;96838.47;;;12.29;59.63
3697;BME280;60662;48.810;8.872;2023-03-20T15:14:28;96851.06;;;12.39;59.57
3697;BME280;60662;48.810;8.872;2023-03-20T15:15:32;96848.19;;;12.27;59.35
3697;BME280;60662;48.810;8.872;2023-03-20T15:16:36;96839.25;;;12.31;59.61
3697;BME280;60662;48.810;8.872;2023-03-20T15:17:40;96841.16;;;12.27;59.60
3697;BME280;60662;48.810;8.872;2023-03-20T15:18:49;96845.63;;;12.25;59.90
3697;BME280;60662;48.810;8.872;2023-03-20T15:20:00;96837.94;;;12.22;59.89
3697;BME280;60662;48.810;8.872;2023-03-20T15:21:02;96845.91;;;12.38;59.26
3697;BME280;60662;48.810;8.872;2023-03-20T15:22:14;96844.25;;;12.35;59.38
3697;BME280;60662;48.810;8.872;2023-03-20T15:23:16;96845.41;;;12.30;59.21
3697;BME280;60662;48.810;8.872;2023-03-20T15:26:36;96845.22;;;12.15;59.23
3697;BME280;60662;48.810;8.872;2023-03-20T15:27:38;96840.56;;;12.03;58.93
3697;BME280;60662;48.810;8.872;2023-03-20T15:28:41;96843.94;;;11.86;59.58
3697;BME280;60662;48.810;8.872;2023-03-20T15:29:49;96835.25;;;12.04;59.66
3697;BME280;60662;48.810;8.872;2023-03-20T15:30:55;96842.53;;;12.17;59.61
3697;BME280;60662;48.810;8.872;2023-03-20T15:31:58;96837.66;;;12.09;59.90
3697;BME280;60662;48.810;8.872;2023-03-20T15:33:17;96833.91;;;12.15;59.98
3697;BME280;60662;48.810;8.872;2023-03-20T15:34:24;96838.63;;;12.25;60.16
3697;BME280;60662;48.810;8.872;2023-03-20T15:35:26;96841.19;;;12.08;59.38
3697;BME280;60662;48.810;8.872;2023-03-20T15:36:30;96837.31;;;12.17;60.00
3697;BME280;60662;48.810;8.872;2023-03-20T15:37:35;96843.19;;;12.03;59.68
3697;BME280;60662;48.810;8.872;2023-03-20T15:38:37;96845.94;;;12.00;59.51
3697;BME280;60662;48.810;8.872;2023-03-20T15:39:45;96839.41;;;11.89;59.53
3697;BME280;60662;48.810;8.872;2023-03-20T15:40:47;96847.13;;;11.92;59.73
3697;BME280;60662;48.810;8.872;2023-03-20T15:41:55;96818.44;;;11.72;60.53
3697;BME280;60662;48.810;8.872;2023-03-20T15:43:14;96843.03;;;11.87;60.33
3697;BME280;60662;48.810;8.872;2023-03-20T15:44:35;96847.22;;;11.91;60.07
3697;BME280;60662;48.810;8.872;2023-03-20T15:45:38;96855.28;;;12.05;60.75
3697;BME280;60662;48.810;8.872;2023-03-20T15:48:17;96854.84;;;12.15;60.48
3697;BME280;60662;48.810;8.872;2023-03-20T15:49:20;96844.91;;;12.04;59.59
3697;BME280;60662;48.810;8.872;2023-03-20T15:50:22;96849.53;;;11.97;59.96
3697;BME280;60662;48.810;8.872;2023-03-20T15:51:25;96848.22;;;11.88;60.55
3697;BME280;60662;48.810;8.872;2023-03-20T15:52:39;96846.44;;;11.89;60.66
3697;BME280;60662;48.810;8.872;2023-03-20T15:53:44;96853.78;;;11.81;60.57
3697;BME280;60662;48.810;8.872;2023-03-20T15:54:47;96852.44;;;11.91;60.34
3697;BME280;60662;48.810;8.872;2023-03-20T15:55:52;96840.91;;;11.95;59.98
3697;BME280;60662;48.810;8.872;2023-03-20T15:57:18;96842.75;;;11.93;59.77
3697;BME280;60662;48.810;8.872;2023-03-20T15:58:20;96839.56;;;11.86;60.15